createdAt,value
2023-01-19T00:01:05.581Z,7.00
2023-01-19T00:06:07.587Z,6.43
2023-01-19T00:11:09.085Z,6.78
2023-01-19T00:16:10.572Z,7.00
2023-01-19T00:21:14.712Z,8.00
2023-01-19T00:26:17.274Z,7.05
2023-01-19T00:31:20.650Z,6.70
2023-01-19T00:36:22.209Z,5.43
2023-01-19T00:41:43.954Z,6.07
2023-01-19T00:46:45.359Z,5.38
2023-01-19T00:51:46.760Z,5.30
2023-01-19T00:56:48.369Z,6.18
2023-01-19T01:01:49.877Z,5.55
2023-01-19T01:06:51.357Z,5.68
2023-01-19T01:11:53.158Z,5.65
2023-01-19T01:16:55.092Z,5.85
2023-01-19T01:21:56.653Z,5.75
2023-01-19T01:26:58.227Z,5.50
2023-01-19T01:31:59.767Z,5.03
2023-01-19T01:37:01.967Z,5.55
2023-01-19T01:42:14.320Z,5.78
2023-01-19T01:47:18.046Z,5.03
2023-01-19T01:52:22.594Z,6.93
2023-01-19T01:57:27.941Z,4.28
2023-01-19T02:02:51.184Z,6.22
2023-01-19T02:08:27.812Z,5.13
2023-01-19T02:13:30.459Z,5.18
2023-01-19T02:18:32.828Z,4.53
2023-01-19T02:23:47.367Z,5.43
2023-01-19T02:28:53.558Z,4.80
2023-01-19T02:33:55.801Z,4.75
2023-01-19T02:39:00.157Z,4.95
2023-01-19T02:44:02.489Z,4.57
2023-01-19T02:49:04.116Z,5.90
2023-01-19T02:54:26.929Z,5.25
2023-01-19T02:59:53.665Z,5.05
2023-01-19T03:05:23.167Z,4.53
2023-01-19T03:10:39.768Z,5.40
2023-01-19T03:15:51.529Z,4.97
2023-01-19T03:20:57.559Z,6.22
2023-01-19T03:26:01.743Z,5.72
2023-01-19T03:31:10.793Z,5.22
2023-01-19T03:36:21.513Z,6.35
2023-01-19T03:41:25.210Z,6.50
2023-01-19T03:46:27.885Z,7.93
2023-01-19T03:51:29.749Z,6.65
2023-01-19T03:56:31.610Z,7.93
2023-01-19T04:01:33.159Z,7.68
2023-01-19T04:06:34.690Z,7.75
2023-01-19T04:11:36.145Z,6.68
2023-01-19T04:16:37.620Z,5.97
2023-01-19T04:21:39.041Z,6.60
2023-01-19T04:26:40.469Z,6.47
2023-01-19T04:31:41.914Z,6.45
2023-01-19T04:36:45.241Z,6.95
2023-01-19T04:41:46.753Z,6.70
2023-01-19T04:46:51.929Z,6.88
2023-01-19T04:51:54.152Z,7.03
2023-01-19T04:56:55.556Z,7.05
2023-01-19T05:01:57.120Z,6.75
2023-01-19T05:06:58.696Z,7.38
2023-01-19T05:12:00.166Z,6.32
2023-01-19T05:17:03.243Z,6.35
2023-01-19T05:22:06.246Z,6.97
2023-01-19T05:27:07.940Z,6.72
2023-01-19T05:32:09.529Z,7.30
2023-01-19T05:37:11.613Z,7.78
2023-01-19T05:42:13.056Z,7.70
2023-01-19T05:47:14.449Z,7.00
2023-01-19T05:52:16.334Z,6.95
2023-01-19T05:57:18.137Z,7.32
2023-01-19T06:02:19.662Z,7.65
2023-01-19T06:07:21.511Z,8.30
2023-01-19T06:12:23.961Z,7.13
2023-01-19T06:17:25.340Z,7.82
2023-01-19T06:22:26.733Z,7.32
2023-01-19T06:27:28.356Z,7.47
2023-01-19T06:32:30.925Z,7.95
2023-01-19T06:37:32.349Z,6.95
2023-01-19T06:42:34.364Z,6.53
2023-01-19T06:47:35.775Z,6.72
2023-01-19T06:52:42.263Z,6.45
2023-01-19T06:57:44.987Z,6.55
2023-01-19T07:02:46.524Z,6.88
2023-01-19T07:07:55.568Z,6.45
2023-01-19T07:12:58.142Z,6.30
2023-01-19T07:18:01.607Z,5.90
2023-01-19T07:23:03.676Z,7.15
2023-01-19T07:28:05.206Z,6.95
2023-01-19T07:33:06.972Z,6.05
2023-01-19T07:38:08.386Z,6.18
2023-01-19T07:43:10.089Z,6.63
2023-01-19T07:48:11.586Z,6.07
2023-01-19T07:53:13.003Z,5.75
2023-01-19T07:58:14.840Z,5.50
2023-01-19T08:03:16.759Z,5.80
2023-01-19T08:08:19.053Z,5.30
2023-01-19T08:13:20.504Z,4.65
2023-01-19T08:18:22.754Z,5.18
2023-01-19T08:23:24.264Z,5.20
2023-01-19T08:28:26.129Z,5.47
2023-01-19T08:33:27.608Z,5.60
2023-01-19T08:38:29.082Z,5.20
2023-01-19T08:43:30.522Z,5.40
2023-01-19T08:48:35.618Z,5.05
2023-01-19T08:53:37.922Z,6.18
2023-01-19T08:58:40.843Z,5.32
2023-01-19T09:03:43.780Z,5.82
2023-01-19T09:08:46.690Z,6.68
2023-01-19T09:13:48.127Z,6.85
2023-01-19T09:18:49.637Z,6.65
2023-01-19T09:23:51.284Z,5.35
2023-01-19T09:28:53.029Z,5.43
2023-01-19T09:33:54.515Z,6.18
2023-01-19T09:38:55.956Z,5.38
2023-01-19T09:44:00.015Z,5.10
2023-01-19T09:49:13.661Z,5.90
2023-01-19T09:54:23.373Z,4.75
2023-01-19T09:59:33.399Z,4.30
2023-01-19T10:04:40.420Z,4.80
2023-01-19T10:10:20.327Z,4.85
2023-01-19T10:15:47.842Z,5.70
2023-01-19T10:20:53.723Z,5.20
2023-01-19T10:25:57.662Z,5.65
2023-01-19T10:30:59.265Z,6.20
2023-01-19T10:36:05.424Z,5.78
2023-01-19T10:41:15.904Z,6.50
2023-01-19T10:51:23.449Z,5.35
2023-01-19T10:56:32.585Z,5.72
2023-01-19T11:01:37.060Z,7.50
2023-01-19T11:06:38.737Z,5.82
2023-01-19T11:11:46.378Z,5.78
2023-01-19T11:16:58.734Z,5.60
2023-01-19T11:22:21.558Z,5.75
2023-01-19T11:27:23.051Z,5.43
2023-01-19T11:32:27.444Z,6.43
2023-01-19T11:37:31.540Z,5.95
2023-01-19T11:42:34.509Z,6.55
2023-01-19T11:47:42.802Z,5.82
2023-01-19T11:53:04.409Z,6.90
2023-01-19T11:58:06.069Z,5.38
2023-01-19T12:03:32.663Z,6.07
2023-01-19T12:08:42.561Z,5.93
2023-01-19T12:13:46.103Z,4.87
2023-01-19T12:19:10.634Z,5.97
2023-01-19T12:24:23.796Z,6.00
2023-01-19T12:29:31.244Z,6.60
2023-01-19T12:34:51.827Z,6.03
2023-01-19T12:39:54.674Z,6.72
2023-01-19T12:45:14.892Z,7.20
2023-01-19T12:50:20.395Z,6.45
2023-01-19T12:55:31.843Z,8.20
2023-01-19T13:00:33.350Z,7.30
2023-01-19T13:05:40.806Z,7.28
2023-01-19T13:11:02.034Z,8.15
2023-01-19T13:16:18.836Z,6.43
2023-01-19T13:21:44.706Z,6.50
2023-01-19T13:26:49.513Z,6.47
2023-01-19T13:31:55.424Z,8.30
2023-01-19T13:36:59.332Z,7.38
2023-01-19T13:42:05.701Z,7.05
2023-01-19T13:47:19.270Z,7.20
2023-01-19T13:52:28.743Z,6.00
2023-01-19T13:57:32.477Z,7.82
2023-01-19T14:02:34.500Z,7.75
2023-01-19T14:07:36.128Z,10.05
2023-01-19T14:12:48.176Z,10.60
2023-01-19T14:18:24.984Z,6.82
2023-01-19T14:23:45.032Z,5.88
2023-01-19T14:28:47.299Z,6.78
2023-01-19T14:33:52.135Z,6.57
2023-01-19T14:38:56.173Z,5.57
2023-01-19T14:43:59.086Z,6.78
2023-01-19T14:49:06.459Z,6.40
2023-01-19T14:54:16.596Z,7.13
2023-01-19T14:59:18.144Z,7.85
2023-01-19T15:04:19.594Z,6.85
2023-01-19T15:09:21.175Z,6.70
2023-01-19T15:14:22.911Z,6.00
2023-01-19T15:19:24.457Z,6.57
2023-01-19T15:24:25.917Z,6.47
2023-01-19T15:29:29.190Z,7.10
2023-01-19T15:34:31.266Z,8.45
2023-01-19T15:39:32.865Z,10.73
2023-01-19T15:44:34.416Z,37.72
2023-01-19T15:49:35.981Z,14.63
2023-01-19T15:54:37.806Z,9.55
2023-01-19T15:59:39.248Z,9.55
2023-01-19T16:04:40.736Z,10.30
2023-01-19T16:09:42.127Z,8.27
2023-01-19T16:14:43.516Z,7.43
2023-01-19T16:19:44.928Z,7.82
2023-01-19T16:24:46.465Z,8.68
2023-01-19T16:29:47.998Z,7.45
2023-01-19T16:34:49.458Z,10.32
2023-01-19T16:39:51.563Z,11.43
2023-01-19T16:44:54.595Z,8.38
2023-01-19T16:49:56.138Z,7.80
2023-01-19T16:54:57.548Z,8.38
2023-01-19T16:59:59.016Z,9.70
2023-01-19T17:05:00.542Z,8.82
2023-01-19T17:10:02.025Z,8.85
2023-01-19T17:15:03.658Z,9.05
2023-01-19T17:20:05.601Z,8.27
2023-01-19T17:25:07.635Z,8.68
2023-01-19T17:30:10.051Z,11.10
2023-01-19T17:35:11.710Z,9.85
2023-01-19T17:40:13.480Z,8.05
2023-01-19T17:45:15.239Z,8.60
2023-01-19T17:50:17.541Z,7.03
2023-01-19T17:55:19.815Z,8.90
2023-01-19T18:00:21.636Z,9.60
2023-01-19T18:05:23.262Z,8.38
2023-01-19T18:10:24.705Z,10.77
2023-01-19T18:15:26.185Z,8.23
2023-01-19T18:20:27.618Z,20.83
2023-01-19T18:25:29.077Z,20.13
2023-01-19T18:30:31.113Z,28.33
2023-01-19T18:35:32.552Z,16.00
2023-01-19T18:40:34.073Z,15.07
2023-01-19T18:45:36.981Z,16.90
2023-01-19T18:50:38.483Z,15.30
2023-01-19T18:55:39.937Z,11.27
2023-01-19T19:00:41.332Z,11.23
2023-01-19T19:05:43.663Z,15.98
2023-01-19T19:10:45.328Z,12.88
2023-01-19T19:15:46.761Z,10.77
2023-01-19T19:20:48.185Z,12.32
2023-01-19T19:25:49.712Z,11.68
2023-01-19T19:31:02.583Z,11.40
2023-01-19T19:36:05.195Z,10.63
2023-01-19T19:41:08.369Z,9.57
2023-01-19T19:46:15.975Z,19.80
2023-01-19T19:51:23.703Z,18.10
2023-01-19T19:56:27.963Z,16.35
2023-01-19T20:01:33.479Z,16.10
2023-01-19T20:06:38.903Z,13.60
2023-01-19T20:11:41.395Z,18.67
2023-01-19T20:16:43.441Z,16.42
2023-01-19T20:21:44.859Z,18.23
2023-01-19T20:26:50.285Z,18.95
2023-01-19T20:31:54.862Z,14.57
2023-01-19T20:36:56.282Z,14.73
2023-01-19T20:41:57.683Z,13.82
2023-01-19T20:46:59.177Z,13.18
2023-01-19T20:52:00.866Z,15.38
2023-01-19T20:57:02.348Z,19.98
2023-01-19T21:02:05.949Z,15.27
2023-01-19T21:07:08.967Z,13.63
2023-01-19T21:12:10.380Z,11.27
2023-01-19T21:17:11.937Z,11.73
2023-01-19T21:22:13.331Z,11.15
2023-01-19T21:27:14.946Z,13.55
2023-01-19T21:32:16.383Z,11.93
2023-01-19T21:37:17.888Z,13.35
2023-01-19T21:42:19.295Z,11.68
2023-01-19T21:47:20.919Z,11.57
2023-01-19T21:52:22.326Z,10.73
2023-01-19T21:57:23.755Z,12.23
2023-01-19T22:02:37.897Z,9.73
2023-01-19T22:07:40.168Z,9.85
2023-01-19T22:12:41.591Z,11.65
2023-01-19T22:17:43.025Z,9.93
2023-01-19T22:22:45.569Z,9.75
2023-01-19T22:27:48.336Z,9.98
2023-01-19T22:32:49.841Z,10.23
2023-01-19T22:37:51.261Z,9.05
2023-01-19T22:42:52.673Z,11.18
2023-01-19T22:47:54.064Z,9.30
2023-01-19T22:52:55.788Z,10.88
2023-01-19T22:57:57.209Z,10.38
2023-01-19T23:02:58.579Z,14.82
2023-01-19T23:08:00.004Z,13.15
2023-01-19T23:13:01.429Z,11.02
2023-01-19T23:18:02.881Z,11.13
2023-01-19T23:23:04.843Z,15.15
2023-01-19T23:28:06.556Z,15.55
2023-01-19T23:33:07.956Z,15.52
2023-01-19T23:38:09.513Z,14.18
2023-01-19T23:43:11.004Z,16.80
2023-01-19T23:48:12.467Z,15.27
2023-01-19T23:53:13.893Z,12.82
2023-01-19T23:58:15.309Z,11.65
